sensor_id;sensor_type;location;lat;lon;timestamp;P1;durP1;ratioP1;P2;durP2;ratioP2
4748;SDS011;2388;53.582;9.962;2022-07-24T00:01:27;3.53;;;2.27;;
4748;SDS011;2388;53.582;9.962;2022-07-24T00:03:52;2.80;;;2.60;;
4748;SDS011;2388;53.582;9.962;2022-07-24T00:06:18;3.43;;;2.53;;
4748;SDS011;2388;53.582;9.962;2022-07-24T00:08:43;4.27;;;3.00;;
4748;SDS011;2388;53.582;9.962;2022-07-24T00:11:09;2.80;;;2.60;;
4748;SDS011;2388;53.582;9.962;2022-07-24T00:13:34;2.83;;;2.60;;
4748;SDS011;2388;53.582;9.962;2022-07-24T00:16:00;4.60;;;2.73;;
4748;SDS011;2388;53.582;9.962;2022-07-24T00:18:25;3.00;;;2.47;;
4748;SDS011;2388;53.582;9.962;2022-07-24T00:20:51;3.10;;;2.67;;
4748;SDS011;2388;53.582;9.962;2022-07-24T00:23:16;3.60;;;2.73;;
4748;SDS011;2388;53.582;9.962;2022-07-24T00:25:42;3.63;;;2.87;;
4748;SDS011;2388;53.582;9.962;2022-07-24T00:28:08;2.30;;;2.20;;
4748;SDS011;2388;53.582;9.962;2022-07-24T00:33:08;4.00;;;2.73;;
4748;SDS011;2388;53.582;9.962;2022-07-24T00:35:33;4.47;;;2.87;;
4748;SDS011;2388;53.582;9.962;2022-07-24T00:37:59;2.67;;;2.47;;
4748;SDS011;2388;53.582;9.962;2022-07-24T00:40:25;2.50;;;2.30;;
4748;SDS011;2388;53.582;9.962;2022-07-24T00:42:51;2.63;;;2.43;;
4748;SDS011;2388;53.582;9.962;2022-07-24T00:45:17;2.97;;;2.77;;
4748;SDS011;2388;53.582;9.962;2022-07-24T00:47:43;2.93;;;2.73;;
4748;SDS011;2388;53.582;9.962;2022-07-24T00:50:09;4.00;;;3.13;;
4748;SDS011;2388;53.582;9.962;2022-07-24T00:52:35;3.67;;;2.60;;
4748;SDS011;2388;53.582;9.962;2022-07-24T00:55:01;2.60;;;2.50;;
4748;SDS011;2388;53.582;9.962;2022-07-24T00:57:27;2.63;;;2.43;;
4748;SDS011;2388;53.582;9.962;2022-07-24T00:59:53;3.10;;;2.40;;
4748;SDS011;2388;53.582;9.962;2022-07-24T01:02:18;6.07;;;3.10;;
4748;SDS011;2388;53.582;9.962;2022-07-24T01:04:44;4.83;;;3.00;;
4748;SDS011;2388;53.582;9.962;2022-07-24T01:07:09;3.93;;;2.57;;
4748;SDS011;2388;53.582;9.962;2022-07-24T01:09:36;3.00;;;2.80;;
4748;SDS011;2388;53.582;9.962;2022-07-24T01:12:02;4.23;;;2.87;;
4748;SDS011;2388;53.582;9.962;2022-07-24T01:14:30;3.53;;;2.63;;
4748;SDS011;2388;53.582;9.962;2022-07-24T01:16:56;3.53;;;3.03;;
4748;SDS011;2388;53.582;9.962;2022-07-24T01:19:22;3.03;;;2.60;;
4748;SDS011;2388;53.582;9.962;2022-07-24T01:21:48;2.37;;;2.10;;
4748;SDS011;2388;53.582;9.962;2022-07-24T01:24:15;3.97;;;3.07;;
4748;SDS011;2388;53.582;9.962;2022-07-24T01:26:41;6.97;;;2.83;;
4748;SDS011;2388;53.582;9.962;2022-07-24T01:29:06;3.40;;;3.10;;
4748;SDS011;2388;53.582;9.962;2022-07-24T01:31:32;3.50;;;2.50;;
4748;SDS011;2388;53.582;9.962;2022-07-24T01:33:57;4.40;;;2.87;;
4748;SDS011;2388;53.582;9.962;2022-07-24T01:36:23;5.63;;;3.50;;
4748;SDS011;2388;53.582;9.962;2022-07-24T01:38:48;3.77;;;2.53;;
4748;SDS011;2388;53.582;9.962;2022-07-24T01:41:14;4.93;;;3.00;;
4748;SDS011;2388;53.582;9.962;2022-07-24T01:43:39;4.50;;;2.73;;
4748;SDS011;2388;53.582;9.962;2022-07-24T01:46:05;3.37;;;2.93;;
4748;SDS011;2388;53.582;9.962;2022-07-24T01:48:30;4.80;;;2.70;;
4748;SDS011;2388;53.582;9.962;2022-07-24T01:50:56;3.10;;;2.77;;
4748;SDS011;2388;53.582;9.962;2022-07-24T01:53:21;3.13;;;2.80;;
4748;SDS011;2388;53.582;9.962;2022-07-24T01:55:49;2.97;;;2.77;;
4748;SDS011;2388;53.582;9.962;2022-07-24T01:58:15;3.97;;;2.43;;
4748;SDS011;2388;53.582;9.962;2022-07-24T02:00:41;3.00;;;2.77;;
4748;SDS011;2388;53.582;9.962;2022-07-24T02:03:07;2.53;;;2.33;;
4748;SDS011;2388;53.582;9.962;2022-07-24T02:05:32;4.27;;;2.80;;
4748;SDS011;2388;53.582;9.962;2022-07-24T02:07:58;2.33;;;2.13;;
4748;SDS011;2388;53.582;9.962;2022-07-24T02:10:24;2.77;;;2.57;;
4748;SDS011;2388;53.582;9.962;2022-07-24T02:12:51;4.00;;;2.90;;
4748;SDS011;2388;53.582;9.962;2022-07-24T02:15:17;2.93;;;2.73;;
4748;SDS011;2388;53.582;9.962;2022-07-24T02:17:46;3.63;;;2.50;;
4748;SDS011;2388;53.582;9.962;2022-07-24T02:20:13;3.00;;;2.60;;
4748;SDS011;2388;53.582;9.962;2022-07-24T02:22:38;2.97;;;2.40;;
4748;SDS011;2388;53.582;9.962;2022-07-24T02:25:04;3.93;;;2.27;;
4748;SDS011;2388;53.582;9.962;2022-07-24T02:27:30;3.90;;;2.60;;
4748;SDS011;2388;53.582;9.962;2022-07-24T02:29:56;3.20;;;2.90;;
4748;SDS011;2388;53.582;9.962;2022-07-24T02:32:21;2.70;;;2.50;;
4748;SDS011;2388;53.582;9.962;2022-07-24T02:34:47;4.10;;;2.53;;
4748;SDS011;2388;53.582;9.962;2022-07-24T02:37:12;5.73;;;2.87;;
4748;SDS011;2388;53.582;9.962;2022-07-24T02:39:38;3.47;;;2.80;;
4748;SDS011;2388;53.582;9.962;2022-07-24T02:42:03;3.00;;;2.80;;
4748;SDS011;2388;53.582;9.962;2022-07-24T02:44:29;4.10;;;2.67;;
4748;SDS011;2388;53.582;9.962;2022-07-24T02:46:54;2.63;;;2.43;;
4748;SDS011;2388;53.582;9.962;2022-07-24T02:49:20;2.40;;;2.30;;
4748;SDS011;2388;53.582;9.962;2022-07-24T02:51:45;2.70;;;2.40;;
4748;SDS011;2388;53.582;9.962;2022-07-24T02:54:11;5.10;;;2.40;;
4748;SDS011;2388;53.582;9.962;2022-07-24T02:56:37;2.90;;;2.70;;
4748;SDS011;2388;53.582;9.962;2022-07-24T02:59:02;2.53;;;2.33;;
4748;SDS011;2388;53.582;9.962;2022-07-24T03:01:28;2.97;;;2.80;;
4748;SDS011;2388;53.582;9.962;2022-07-24T03:03:53;2.60;;;2.40;;
4748;SDS011;2388;53.582;9.962;2022-07-24T03:06:18;3.57;;;2.60;;
4748;SDS011;2388;53.582;9.962;2022-07-24T03:08:44;2.40;;;2.30;;
4748;SDS011;2388;53.582;9.962;2022-07-24T03:11:10;2.80;;;2.60;;
4748;SDS011;2388;53.582;9.962;2022-07-24T03:13:35;3.23;;;2.40;;
4748;SDS011;2388;53.582;9.962;2022-07-24T03:16:01;4.37;;;2.80;;
4748;SDS011;2388;53.582;9.962;2022-07-24T03:18:26;2.63;;;2.47;;
4748;SDS011;2388;53.582;9.962;2022-07-24T03:20:52;2.83;;;2.63;;
4748;SDS011;2388;53.582;9.962;2022-07-24T03:23:17;6.63;;;3.30;;
4748;SDS011;2388;53.582;9.962;2022-07-24T03:25:43;3.60;;;2.63;;
4748;SDS011;2388;53.582;9.962;2022-07-24T03:28:08;4.97;;;3.30;;
4748;SDS011;2388;53.582;9.962;2022-07-24T03:30:34;3.50;;;3.20;;
4748;SDS011;2388;53.582;9.962;2022-07-24T03:33:01;4.23;;;3.57;;
4748;SDS011;2388;53.582;9.962;2022-07-24T03:35:26;3.93;;;3.00;;
4748;SDS011;2388;53.582;9.962;2022-07-24T03:37:51;5.93;;;3.80;;
4748;SDS011;2388;53.582;9.962;2022-07-24T03:40:17;5.33;;;3.13;;
4748;SDS011;2388;53.582;9.962;2022-07-24T03:42:42;3.50;;;3.20;;
4748;SDS011;2388;53.582;9.962;2022-07-24T03:45:08;4.47;;;3.40;;
4748;SDS011;2388;53.582;9.962;2022-07-24T03:47:34;2.80;;;2.63;;
4748;SDS011;2388;53.582;9.962;2022-07-24T03:49:59;6.17;;;3.87;;
4748;SDS011;2388;53.582;9.962;2022-07-24T03:52:25;6.13;;;3.30;;
4748;SDS011;2388;53.582;9.962;2022-07-24T03:54:51;3.60;;;3.30;;
4748;SDS011;2388;53.582;9.962;2022-07-24T03:57:17;8.83;;;4.10;;
4748;SDS011;2388;53.582;9.962;2022-07-24T03:59:42;3.10;;;2.90;;
4748;SDS011;2388;53.582;9.962;2022-07-24T04:02:08;4.37;;;2.70;;
4748;SDS011;2388;53.582;9.962;2022-07-24T04:04:33;6.00;;;3.00;;
4748;SDS011;2388;53.582;9.962;2022-07-24T04:06:59;6.67;;;3.37;;
4748;SDS011;2388;53.582;9.962;2022-07-24T04:09:24;4.80;;;3.20;;
4748;SDS011;2388;53.582;9.962;2022-07-24T04:11:50;4.80;;;3.30;;
4748;SDS011;2388;53.582;9.962;2022-07-24T04:14:15;4.07;;;3.10;;
4748;SDS011;2388;53.582;9.962;2022-07-24T04:16:41;3.50;;;3.10;;
4748;SDS011;2388;53.582;9.962;2022-07-24T04:19:06;3.63;;;2.67;;
4748;SDS011;2388;53.582;9.962;2022-07-24T04:21:31;2.57;;;2.37;;
4748;SDS011;2388;53.582;9.962;2022-07-24T04:23:57;2.97;;;2.30;;
4748;SDS011;2388;53.582;9.962;2022-07-24T04:26:22;4.50;;;2.20;;
4748;SDS011;2388;53.582;9.962;2022-07-24T04:28:48;2.87;;;2.63;;
4748;SDS011;2388;53.582;9.962;2022-07-24T04:31:14;3.13;;;2.27;;
4748;SDS011;2388;53.582;9.962;2022-07-24T04:33:39;6.33;;;2.40;;
4748;SDS011;2388;53.582;9.962;2022-07-24T04:36:05;3.87;;;2.80;;
4748;SDS011;2388;53.582;9.962;2022-07-24T04:38:34;3.13;;;2.00;;
4748;SDS011;2388;53.582;9.962;2022-07-24T04:41:00;4.27;;;2.30;;
4748;SDS011;2388;53.582;9.962;2022-07-24T04:43:25;2.77;;;2.50;;
4748;SDS011;2388;53.582;9.962;2022-07-24T04:45:51;3.43;;;2.00;;
4748;SDS011;2388;53.582;9.962;2022-07-24T04:48:16;4.20;;;2.07;;
4748;SDS011;2388;53.582;9.962;2022-07-24T04:50:42;2.27;;;2.10;;
4748;SDS011;2388;53.582;9.962;2022-07-24T04:53:07;2.23;;;2.07;;
4748;SDS011;2388;53.582;9.962;2022-07-24T04:55:33;3.13;;;1.83;;
4748;SDS011;2388;53.582;9.962;2022-07-24T04:57:58;2.80;;;1.90;;
4748;SDS011;2388;53.582;9.962;2022-07-24T05:00:24;2.20;;;2.00;;
4748;SDS011;2388;53.582;9.962;2022-07-24T05:02:49;3.83;;;2.00;;
4748;SDS011;2388;53.582;9.962;2022-07-24T05:05:15;3.70;;;2.33;;
4748;SDS011;2388;53.582;9.962;2022-07-24T05:07:40;4.03;;;2.03;;
4748;SDS011;2388;53.582;9.962;2022-07-24T05:10:06;3.00;;;1.97;;
4748;SDS011;2388;53.582;9.962;2022-07-24T05:12:32;2.23;;;1.53;;
4748;SDS011;2388;53.582;9.962;2022-07-24T05:14:57;3.00;;;2.07;;
4748;SDS011;2388;53.582;9.962;2022-07-24T05:17:23;1.90;;;1.60;;
4748;SDS011;2388;53.582;9.962;2022-07-24T05:19:48;1.73;;;1.63;;
4748;SDS011;2388;53.582;9.962;2022-07-24T05:22:14;3.50;;;1.70;;
4748;SDS011;2388;53.582;9.962;2022-07-24T05:24:39;3.37;;;1.60;;
4748;SDS011;2388;53.582;9.962;2022-07-24T05:27:05;2.20;;;1.97;;
4748;SDS011;2388;53.582;9.962;2022-07-24T05:29:30;3.77;;;1.90;;
4748;SDS011;2388;53.582;9.962;2022-07-24T05:31:56;3.13;;;1.90;;
4748;SDS011;2388;53.582;9.962;2022-07-24T05:34:21;1.80;;;1.70;;
4748;SDS011;2388;53.582;9.962;2022-07-24T05:36:47;3.77;;;2.33;;
4748;SDS011;2388;53.582;9.962;2022-07-24T05:39:13;6.20;;;1.73;;
4748;SDS011;2388;53.582;9.962;2022-07-24T05:41:39;6.47;;;1.83;;
4748;SDS011;2388;53.582;9.962;2022-07-24T05:44:04;1.47;;;1.37;;
4748;SDS011;2388;53.582;9.962;2022-07-24T05:46:30;2.13;;;1.63;;
4748;SDS011;2388;53.582;9.962;2022-07-24T05:48:55;1.73;;;1.63;;
4748;SDS011;2388;53.582;9.962;2022-07-24T05:51:21;2.60;;;2.10;;
4748;SDS011;2388;53.582;9.962;2022-07-24T05:53:47;9.43;;;1.63;;
4748;SDS011;2388;53.582;9.962;2022-07-24T05:56:12;2.30;;;1.90;;
4748;SDS011;2388;53.582;9.962;2022-07-24T05:58:38;3.40;;;1.90;;
4748;SDS011;2388;53.582;9.962;2022-07-24T06:01:03;2.93;;;1.63;;
4748;SDS011;2388;53.582;9.962;2022-07-24T06:03:29;1.77;;;1.67;;
4748;SDS011;2388;53.582;9.962;2022-07-24T06:05:54;1.97;;;1.77;;
4748;SDS011;2388;53.582;9.962;2022-07-24T06:08:20;1.63;;;1.40;;
4748;SDS011;2388;53.582;9.962;2022-07-24T06:10:46;4.90;;;1.83;;
4748;SDS011;2388;53.582;9.962;2022-07-24T06:13:11;1.87;;;1.33;;
4748;SDS011;2388;53.582;9.962;2022-07-24T06:15:37;1.97;;;1.70;;
4748;SDS011;2388;53.582;9.962;2022-07-24T06:18:02;3.37;;;1.47;;
4748;SDS011;2388;53.582;9.962;2022-07-24T06:20:28;2.20;;;1.40;;
4748;SDS011;2388;53.582;9.962;2022-07-24T06:22:53;2.93;;;1.50;;
4748;SDS011;2388;53.582;9.962;2022-07-24T06:25:19;1.50;;;1.40;;
4748;SDS011;2388;53.582;9.962;2022-07-24T06:27:46;1.63;;;1.53;;
4748;SDS011;2388;53.582;9.962;2022-07-24T06:30:18;5.73;;;1.70;;
4748;SDS011;2388;53.582;9.962;2022-07-24T06:32:46;3.23;;;1.60;;
4748;SDS011;2388;53.582;9.962;2022-07-24T06:35:12;3.10;;;1.70;;
4748;SDS011;2388;53.582;9.962;2022-07-24T06:37:37;2.47;;;1.80;;
4748;SDS011;2388;53.582;9.962;2022-07-24T06:40:03;14.00;;;10.67;;
4748;SDS011;2388;53.582;9.962;2022-07-24T06:42:30;18.70;;;14.00;;
4748;SDS011;2388;53.582;9.962;2022-07-24T06:44:55;13.80;;;12.03;;
4748;SDS011;2388;53.582;9.962;2022-07-24T06:47:21;4.50;;;1.80;;
4748;SDS011;2388;53.582;9.962;2022-07-24T06:49:46;1.80;;;1.60;;
4748;SDS011;2388;53.582;9.962;2022-07-24T06:52:12;2.30;;;1.67;;
4748;SDS011;2388;53.582;9.962;2022-07-24T06:54:37;2.30;;;1.73;;
4748;SDS011;2388;53.582;9.962;2022-07-24T06:57:03;3.10;;;1.53;;
4748;SDS011;2388;53.582;9.962;2022-07-24T06:59:29;2.77;;;1.50;;
4748;SDS011;2388;53.582;9.962;2022-07-24T07:01:54;3.23;;;1.83;;
4748;SDS011;2388;53.582;9.962;2022-07-24T07:04:20;1.63;;;1.53;;
4748;SDS011;2388;53.582;9.962;2022-07-24T07:06:46;1.60;;;1.50;;
4748;SDS011;2388;53.582;9.962;2022-07-24T07:09:11;3.53;;;1.77;;
4748;SDS011;2388;53.582;9.962;2022-07-24T07:11:37;1.57;;;1.47;;
4748;SDS011;2388;53.582;9.962;2022-07-24T07:14:02;3.23;;;1.80;;
4748;SDS011;2388;53.582;9.962;2022-07-24T07:16:28;2.47;;;2.07;;
4748;SDS011;2388;53.582;9.962;2022-07-24T07:18:54;2.60;;;1.80;;
4748;SDS011;2388;53.582;9.962;2022-07-24T07:21:19;6.20;;;1.70;;
4748;SDS011;2388;53.582;9.962;2022-07-24T07:23:44;1.90;;;1.70;;
4748;SDS011;2388;53.582;9.962;2022-07-24T07:26:10;3.90;;;2.33;;
4748;SDS011;2388;53.582;9.962;2022-07-24T07:28:35;4.30;;;2.47;;
4748;SDS011;2388;53.582;9.962;2022-07-24T07:31:01;1.97;;;1.60;;
4748;SDS011;2388;53.582;9.962;2022-07-24T07:33:26;1.60;;;1.50;;
4748;SDS011;2388;53.582;9.962;2022-07-24T07:35:53;6.00;;;2.37;;
4748;SDS011;2388;53.582;9.962;2022-07-24T07:38:18;2.10;;;1.90;;
4748;SDS011;2388;53.582;9.962;2022-07-24T07:40:44;3.47;;;1.50;;
4748;SDS011;2388;53.582;9.962;2022-07-24T07:43:10;1.50;;;1.40;;
4748;SDS011;2388;53.582;9.962;2022-07-24T07:45:35;2.23;;;1.40;;
4748;SDS011;2388;53.582;9.962;2022-07-24T07:48:01;5.90;;;3.10;;
4748;SDS011;2388;53.582;9.962;2022-07-24T07:50:27;6.53;;;2.30;;
4748;SDS011;2388;53.582;9.962;2022-07-24T07:52:52;2.00;;;1.70;;
4748;SDS011;2388;53.582;9.962;2022-07-24T07:55:18;3.83;;;2.83;;
4748;SDS011;2388;53.582;9.962;2022-07-24T07:57:43;3.70;;;3.20;;
4748;SDS011;2388;53.582;9.962;2022-07-24T08:00:09;3.67;;;2.13;;
4748;SDS011;2388;53.582;9.962;2022-07-24T08:02:36;1.97;;;1.87;;
4748;SDS011;2388;53.582;9.962;2022-07-24T08:05:01;1.60;;;1.50;;
4748;SDS011;2388;53.582;9.962;2022-07-24T08:07:27;2.90;;;2.00;;
4748;SDS011;2388;53.582;9.962;2022-07-24T08:09:53;2.93;;;1.80;;
4748;SDS011;2388;53.582;9.962;2022-07-24T08:12:18;1.57;;;1.37;;
4748;SDS011;2388;53.582;9.962;2022-07-24T08:14:44;1.70;;;1.30;;
4748;SDS011;2388;53.582;9.962;2022-07-24T08:17:09;1.63;;;1.50;;
4748;SDS011;2388;53.582;9.962;2022-07-24T08:19:36;2.13;;;2.00;;
4748;SDS011;2388;53.582;9.962;2022-07-24T08:22:02;2.17;;;1.77;;
4748;SDS011;2388;53.582;9.962;2022-07-24T08:24:29;2.00;;;1.90;;
4748;SDS011;2388;53.582;9.962;2022-07-24T08:26:57;2.50;;;1.53;;
4748;SDS011;2388;53.582;9.962;2022-07-24T08:29:23;2.70;;;1.50;;
4748;SDS011;2388;53.582;9.962;2022-07-24T08:31:49;2.80;;;2.60;;
4748;SDS011;2388;53.582;9.962;2022-07-24T08:34:15;1.83;;;1.63;;
4748;SDS011;2388;53.582;9.962;2022-07-24T08:36:41;2.10;;;1.93;;
4748;SDS011;2388;53.582;9.962;2022-07-24T08:39:10;3.37;;;1.80;;
4748;SDS011;2388;53.582;9.962;2022-07-24T08:41:36;4.60;;;2.30;;
4748;SDS011;2388;53.582;9.962;2022-07-24T08:44:02;2.80;;;2.40;;
4748;SDS011;2388;53.582;9.962;2022-07-24T08:46:28;3.13;;;1.67;;
4748;SDS011;2388;53.582;9.962;2022-07-24T08:48:55;1.80;;;1.70;;
4748;SDS011;2388;53.582;9.962;2022-07-24T08:51:22;1.43;;;1.33;;
4748;SDS011;2388;53.582;9.962;2022-07-24T08:53:52;2.07;;;1.80;;
4748;SDS011;2388;53.582;9.962;2022-07-24T08:56:18;1.90;;;1.70;;
4748;SDS011;2388;53.582;9.962;2022-07-24T08:58:44;2.30;;;1.70;;
4748;SDS011;2388;53.582;9.962;2022-07-24T09:01:09;2.53;;;1.90;;
4748;SDS011;2388;53.582;9.962;2022-07-24T09:03:41;3.50;;;2.30;;
4748;SDS011;2388;53.582;9.962;2022-07-24T09:06:09;4.03;;;2.70;;
4748;SDS011;2388;53.582;9.962;2022-07-24T09:08:35;2.67;;;2.10;;
4748;SDS011;2388;53.582;9.962;2022-07-24T09:11:03;1.67;;;1.53;;
4748;SDS011;2388;53.582;9.962;2022-07-24T09:13:29;2.47;;;2.27;;
4748;SDS011;2388;53.582;9.962;2022-07-24T09:16:23;6.10;;;2.13;;
4748;SDS011;2388;53.582;9.962;2022-07-24T09:18:50;2.47;;;1.63;;
4748;SDS011;2388;53.582;9.962;2022-07-24T09:21:27;2.57;;;1.70;;
4748;SDS011;2388;53.582;9.962;2022-07-24T09:23:56;2.33;;;2.13;;
4748;SDS011;2388;53.582;9.962;2022-07-24T09:26:42;1.50;;;1.40;;
4748;SDS011;2388;53.582;9.962;2022-07-24T09:29:20;8.47;;;5.20;;
4748;SDS011;2388;53.582;9.962;2022-07-24T09:31:54;7.23;;;5.53;;
4748;SDS011;2388;53.582;9.962;2022-07-24T09:34:22;3.83;;;3.03;;
4748;SDS011;2388;53.582;9.962;2022-07-24T09:36:56;3.17;;;2.13;;
4748;SDS011;2388;53.582;9.962;2022-07-24T09:39:27;2.70;;;2.00;;
4748;SDS011;2388;53.582;9.962;2022-07-24T09:41:55;2.27;;;2.07;;
4748;SDS011;2388;53.582;9.962;2022-07-24T09:44:21;2.70;;;2.27;;
4748;SDS011;2388;53.582;9.962;2022-07-24T09:47:06;4.13;;;2.20;;
4748;SDS011;2388;53.582;9.962;2022-07-24T09:49:34;3.37;;;1.67;;
4748;SDS011;2388;53.582;9.962;2022-07-24T09:54:40;3.53;;;3.23;;
4748;SDS011;2388;53.582;9.962;2022-07-24T09:57:17;2.70;;;2.50;;
4748;SDS011;2388;53.582;9.962;2022-07-24T10:02:15;2.27;;;2.07;;
4748;SDS011;2388;53.582;9.962;2022-07-24T10:04:42;3.30;;;2.50;;
4748;SDS011;2388;53.582;9.962;2022-07-24T10:07:09;2.33;;;2.23;;
4748;SDS011;2388;53.582;9.962;2022-07-24T10:09:37;3.10;;;2.90;;
4748;SDS011;2388;53.582;9.962;2022-07-24T10:12:06;4.50;;;3.63;;
4748;SDS011;2388;53.582;9.962;2022-07-24T10:14:40;14.43;;;6.07;;
4748;SDS011;2388;53.582;9.962;2022-07-24T10:17:08;3.47;;;2.80;;
4748;SDS011;2388;53.582;9.962;2022-07-24T10:19:38;4.37;;;3.27;;
4748;SDS011;2388;53.582;9.962;2022-07-24T10:22:05;2.67;;;2.43;;
4748;SDS011;2388;53.582;9.962;2022-07-24T10:24:41;3.77;;;3.37;;
4748;SDS011;2388;53.582;9.962;2022-07-24T10:27:20;2.80;;;2.60;;
4748;SDS011;2388;53.582;9.962;2022-07-24T10:29:47;4.87;;;4.37;;
4748;SDS011;2388;53.582;9.962;2022-07-24T10:32:14;7.33;;;4.33;;
4748;SDS011;2388;53.582;9.962;2022-07-24T10:34:45;4.50;;;3.70;;
4748;SDS011;2388;53.582;9.962;2022-07-24T10:37:16;4.37;;;3.37;;
4748;SDS011;2388;53.582;9.962;2022-07-24T10:42:18;3.20;;;3.00;;
4748;SDS011;2388;53.582;9.962;2022-07-24T10:44:44;4.67;;;3.03;;
4748;SDS011;2388;53.582;9.962;2022-07-24T10:47:29;4.60;;;3.50;;
4748;SDS011;2388;53.582;9.962;2022-07-24T10:49:57;3.00;;;2.90;;
4748;SDS011;2388;53.582;9.962;2022-07-24T11:00:32;3.80;;;3.50;;
4748;SDS011;2388;53.582;9.962;2022-07-24T11:03:02;3.93;;;3.63;;
4748;SDS011;2388;53.582;9.962;2022-07-24T11:05:34;3.97;;;3.50;;
4748;SDS011;2388;53.582;9.962;2022-07-24T11:10:45;3.43;;;3.10;;
4748;SDS011;2388;53.582;9.962;2022-07-24T11:13:38;3.80;;;3.50;;
4748;SDS011;2388;53.582;9.962;2022-07-24T11:18:39;3.30;;;3.10;;
4748;SDS011;2388;53.582;9.962;2022-07-24T11:21:26;4.53;;;3.07;;
4748;SDS011;2388;53.582;9.962;2022-07-24T11:26:48;5.47;;;3.47;;
4748;SDS011;2388;53.582;9.962;2022-07-24T11:29:19;8.60;;;3.20;;
4748;SDS011;2388;53.582;9.962;2022-07-24T11:31:49;3.20;;;2.97;;
4748;SDS011;2388;53.582;9.962;2022-07-24T11:34:18;4.70;;;4.30;;
4748;SDS011;2388;53.582;9.962;2022-07-24T11:36:44;6.43;;;4.80;;
4748;SDS011;2388;53.582;9.962;2022-07-24T11:39:14;17.10;;;5.93;;
4748;SDS011;2388;53.582;9.962;2022-07-24T11:41:46;5.00;;;4.57;;
4748;SDS011;2388;53.582;9.962;2022-07-24T11:44:14;7.70;;;3.83;;
4748;SDS011;2388;53.582;9.962;2022-07-24T11:46:46;3.67;;;3.37;;
4748;SDS011;2388;53.582;9.962;2022-07-24T11:49:11;4.10;;;3.70;;
4748;SDS011;2388;53.582;9.962;2022-07-24T11:51:40;5.10;;;4.30;;
4748;SDS011;2388;53.582;9.962;2022-07-24T11:54:11;3.93;;;3.57;;
4748;SDS011;2388;53.582;9.962;2022-07-24T11:56:37;7.90;;;4.93;;
4748;SDS011;2388;53.582;9.962;2022-07-24T11:59:03;14.13;;;3.93;;
4748;SDS011;2388;53.582;9.962;2022-07-24T12:01:29;5.17;;;3.90;;
4748;SDS011;2388;53.582;9.962;2022-07-24T12:03:58;11.13;;;4.73;;
4748;SDS011;2388;53.582;9.962;2022-07-24T12:06:25;4.70;;;4.03;;
4748;SDS011;2388;53.582;9.962;2022-07-24T12:08:56;5.60;;;4.80;;
4748;SDS011;2388;53.582;9.962;2022-07-24T12:11:23;4.33;;;3.90;;
4748;SDS011;2388;53.582;9.962;2022-07-24T12:13:49;5.10;;;4.60;;
4748;SDS011;2388;53.582;9.962;2022-07-24T12:16:26;5.17;;;4.40;;
4748;SDS011;2388;53.582;9.962;2022-07-24T12:19:10;4.30;;;3.90;;
4748;SDS011;2388;53.582;9.962;2022-07-24T12:21:36;9.53;;;5.00;;
4748;SDS011;2388;53.582;9.962;2022-07-24T12:24:02;5.97;;;4.57;;
4748;SDS011;2388;53.582;9.962;2022-07-24T12:26:28;9.70;;;4.30;;
4748;SDS011;2388;53.582;9.962;2022-07-24T12:29:09;5.90;;;3.10;;
4748;SDS011;2388;53.582;9.962;2022-07-24T12:31:35;6.70;;;3.90;;
4748;SDS011;2388;53.582;9.962;2022-07-24T12:34:01;4.40;;;3.60;;
4748;SDS011;2388;53.582;9.962;2022-07-24T12:36:26;3.73;;;3.53;;
4748;SDS011;2388;53.582;9.962;2022-07-24T12:38:53;3.97;;;3.57;;
4748;SDS011;2388;53.582;9.962;2022-07-24T12:41:21;3.77;;;3.43;;
4748;SDS011;2388;53.582;9.962;2022-07-24T12:46:24;4.23;;;3.83;;
4748;SDS011;2388;53.582;9.962;2022-07-24T12:48:58;3.60;;;3.30;;
4748;SDS011;2388;53.582;9.962;2022-07-24T12:51:25;4.13;;;3.63;;
4748;SDS011;2388;53.582;9.962;2022-07-24T12:53:53;9.50;;;7.70;;
4748;SDS011;2388;53.582;9.962;2022-07-24T12:56:19;5.07;;;4.27;;
4748;SDS011;2388;53.582;9.962;2022-07-24T12:58:53;3.80;;;3.40;;
4748;SDS011;2388;53.582;9.962;2022-07-24T13:01:21;6.00;;;3.87;;
4748;SDS011;2388;53.582;9.962;2022-07-24T13:03:54;7.83;;;3.93;;
4748;SDS011;2388;53.582;9.962;2022-07-24T13:06:31;9.63;;;3.80;;
4748;SDS011;2388;53.582;9.962;2022-07-24T13:08:58;4.00;;;3.40;;
4748;SDS011;2388;53.582;9.962;2022-07-24T13:11:23;3.93;;;3.67;;
4748;SDS011;2388;53.582;9.962;2022-07-24T13:13:49;5.63;;;4.30;;
4748;SDS011;2388;53.582;9.962;2022-07-24T13:16:14;5.63;;;5.10;;
4748;SDS011;2388;53.582;9.962;2022-07-24T13:18:40;5.90;;;3.70;;
4748;SDS011;2388;53.582;9.962;2022-07-24T13:21:05;6.97;;;3.70;;
4748;SDS011;2388;53.582;9.962;2022-07-24T13:23:31;4.83;;;3.70;;
4748;SDS011;2388;53.582;9.962;2022-07-24T13:25:56;3.97;;;3.67;;
4748;SDS011;2388;53.582;9.962;2022-07-24T13:28:22;4.33;;;3.93;;
4748;SDS011;2388;53.582;9.962;2022-07-24T13:30:47;4.37;;;3.87;;
4748;SDS011;2388;53.582;9.962;2022-07-24T13:33:13;4.63;;;4.33;;
4748;SDS011;2388;53.582;9.962;2022-07-24T13:35:38;4.57;;;4.17;;
4748;SDS011;2388;53.582;9.962;2022-07-24T13:38:04;10.73;;;4.13;;
4748;SDS011;2388;53.582;9.962;2022-07-24T13:40:29;9.60;;;4.90;;
4748;SDS011;2388;53.582;9.962;2022-07-24T13:42:55;4.10;;;3.80;;
4748;SDS011;2388;53.582;9.962;2022-07-24T13:45:20;4.40;;;4.00;;
4748;SDS011;2388;53.582;9.962;2022-07-24T13:47:47;9.67;;;4.57;;
4748;SDS011;2388;53.582;9.962;2022-07-24T13:50:12;3.80;;;3.47;;
4748;SDS011;2388;53.582;9.962;2022-07-24T13:52:38;8.30;;;3.90;;
4748;SDS011;2388;53.582;9.962;2022-07-24T13:55:03;9.80;;;4.47;;
4748;SDS011;2388;53.582;9.962;2022-07-24T13:57:29;4.77;;;4.03;;
4748;SDS011;2388;53.582;9.962;2022-07-24T13:59:55;6.77;;;4.27;;
4748;SDS011;2388;53.582;9.962;2022-07-24T14:02:20;8.77;;;3.80;;
4748;SDS011;2388;53.582;9.962;2022-07-24T14:04:46;4.03;;;3.67;;
4748;SDS011;2388;53.582;9.962;2022-07-24T14:07:11;5.27;;;4.50;;
4748;SDS011;2388;53.582;9.962;2022-07-24T14:09:37;6.57;;;5.90;;
4748;SDS011;2388;53.582;9.962;2022-07-24T14:12:02;4.73;;;4.23;;
4748;SDS011;2388;53.582;9.962;2022-07-24T14:14:29;4.57;;;4.17;;
4748;SDS011;2388;53.582;9.962;2022-07-24T14:16:55;5.13;;;4.63;;
4748;SDS011;2388;53.582;9.962;2022-07-24T14:19:21;7.70;;;4.20;;
4748;SDS011;2388;53.582;9.962;2022-07-24T14:21:46;3.70;;;3.40;;
4748;SDS011;2388;53.582;9.962;2022-07-24T14:24:13;4.07;;;3.80;;
4748;SDS011;2388;53.582;9.962;2022-07-24T14:26:44;3.93;;;3.63;;
4748;SDS011;2388;53.582;9.962;2022-07-24T14:29:10;4.40;;;3.37;;
4748;SDS011;2388;53.582;9.962;2022-07-24T14:31:36;5.03;;;3.70;;
4748;SDS011;2388;53.582;9.962;2022-07-24T14:34:02;3.30;;;3.10;;
4748;SDS011;2388;53.582;9.962;2022-07-24T14:36:28;3.30;;;3.10;;
4748;SDS011;2388;53.582;9.962;2022-07-24T14:38:54;4.70;;;3.83;;
4748;SDS011;2388;53.582;9.962;2022-07-24T14:41:19;3.77;;;3.47;;
4748;SDS011;2388;53.582;9.962;2022-07-24T14:43:45;7.97;;;4.27;;
4748;SDS011;2388;53.582;9.962;2022-07-24T14:46:10;4.13;;;3.20;;
4748;SDS011;2388;53.582;9.962;2022-07-24T14:48:36;3.67;;;3.37;;
4748;SDS011;2388;53.582;9.962;2022-07-24T14:51:01;3.10;;;2.90;;
4748;SDS011;2388;53.582;9.962;2022-07-24T14:53:27;4.00;;;3.07;;
4748;SDS011;2388;53.582;9.962;2022-07-24T14:55:52;3.50;;;3.20;;
4748;SDS011;2388;53.582;9.962;2022-07-24T14:58:18;3.53;;;3.33;;
4748;SDS011;2388;53.582;9.962;2022-07-24T15:00:43;4.40;;;2.73;;
4748;SDS011;2388;53.582;9.962;2022-07-24T15:03:09;3.77;;;3.47;;
4748;SDS011;2388;53.582;9.962;2022-07-24T15:05:35;5.80;;;3.40;;
4748;SDS011;2388;53.582;9.962;2022-07-24T15:08:00;4.13;;;3.10;;
4748;SDS011;2388;53.582;9.962;2022-07-24T15:10:26;4.40;;;3.67;;
4748;SDS011;2388;53.582;9.962;2022-07-24T15:12:51;3.87;;;3.57;;
4748;SDS011;2388;53.582;9.962;2022-07-24T15:15:17;3.90;;;3.60;;
4748;SDS011;2388;53.582;9.962;2022-07-24T15:17:42;3.10;;;2.90;;
4748;SDS011;2388;53.582;9.962;2022-07-24T15:20:08;3.30;;;3.10;;
4748;SDS011;2388;53.582;9.962;2022-07-24T15:22:34;3.43;;;3.23;;
4748;SDS011;2388;53.582;9.962;2022-07-24T15:24:59;3.43;;;3.23;;
4748;SDS011;2388;53.582;9.962;2022-07-24T15:27:25;3.47;;;3.20;;
4748;SDS011;2388;53.582;9.962;2022-07-24T15:29:50;3.37;;;3.17;;
4748;SDS011;2388;53.582;9.962;2022-07-24T15:32:15;3.63;;;3.43;;
4748;SDS011;2388;53.582;9.962;2022-07-24T15:34:41;3.77;;;3.47;;
4748;SDS011;2388;53.582;9.962;2022-07-24T15:37:06;4.43;;;4.03;;
4748;SDS011;2388;53.582;9.962;2022-07-24T15:39:32;3.60;;;3.30;;
4748;SDS011;2388;53.582;9.962;2022-07-24T15:41:58;3.50;;;3.20;;